Deer Park, WA

10:08 PM PST on February 11, 2016 (GMT -0800)
Deer Park | | Change Station
CLOSE
Current Station
Airport
Location: Deer Park,
Elevation: 2205 ft
Nearby Weather Stations
Active Advisory: Air Stagnation Advisory

Elev 2205 ft 47.97 °N, 117.42 °W | Updated 15 minutes ago

Overcast
Overcast
37 °F
Feels Like 34 °F
N
4
Wind Variable Wind from NW

Today
High -- | Low -- °F
--% Chance of Precip.
Yesterday
High -- | Low -- °F
Precip. -- in
Pressure 30.29 in
Visibility 10.0 miles
Clouds Overcast 6000 ft
Windchill 34 °F
Dew Point 35 °F
Humidity 93%
Rainfall 0.00 in
Snow Depth Not available.
7:03 AM 5:05 PM
Waxing Crescent, 17% visible
METAR KDEW 120553Z AUTO 31003KT 10SM OVC060 03/02 A3024 RMK AO2 SLP257 60000 T00280017 10056 20022 55000 TSNO
Pressure 30.29 in
Visibility 10.0 miles
Clouds Overcast 6000 ft
Windchill 34 °F
Dew Point 35 °F
Humidity 93%
Rainfall 0.00 in
Snow Depth Not available.
7:03 AM 5:05 PM
Waxing Crescent, 17% visible
METAR KDEW 120553Z AUTO 31003KT 10SM OVC060 03/02 A3024 RMK AO2 SLP257 60000 T00280017 10056 20022 55000 TSNO

10-Day Weather Forecast

Almanac

Astronomy

Feb. 11, 2016 Rise Set
Actual Time
Civil Twilight
Nautical Twilight
Astronomical Twilight
Moon
Length of Visible Light
Length of Day
Tomorrow will be .
, % of the Moon is Illuminated

Today's Extremes

State Highs State Lows

Community

WunderPhotos

Upload Photos

1,892,270 photos uploaded!

WunderBlog® & News

Nearby

Air Quality

  Air Quality AQ Index Pollutant
Not available.

Snow Depth

Station Depth Elevation

Earthquake Activity

City Distance Mag. Time & Date
Minimum magnitude displayed is 2.5.

Coastal Water Temperatures

Place Temperature

Stations

Nearby Weather Stations

Station Location Temp. Windchill Dew Point Humidity Wind Precip. Elev Updated Type
                   

Watches & Warnings

Air Stagnation Advisory
Issued: 2:31 PM PST Feb. 11, 2016 – National Weather Service

... Air stagnation advisory remains in effect until 10 am PST
Saturday...

* air quality... light winds and temperature inversions will
heighten the potential for elevated pollution levels in central
and northeast Washington through Saturday morning. Weak weather
disturbances will pass through the area Thursday night and may
slightly improve the situation. A stronger cold front passage
late Friday into Saturday is expected to end the stagnant
conditions.

* Impacts... burn bans may be in effect for your area. Please
consult your state or tribal authorities before burning.

* Locations... a few communities included in the air stagnation
advisory are Ritzville... Moses Lake... Grand Coulee... Colville
... and Wenatchee.

Precautionary/preparedness actions...

An air stagnation advisory indicates that due to limited movement
of an air mass across the advisory area... pollution has the
potential to increase to dangerous levels. Persons with
respiratory illness should follow their physicians advice for
dealing with high levels of air pollution.